Time;durP1;ratioP1;P1;durP2;ratioP2;P2;SDS_P1;SDS_P2;PMS_P1;PMS_P2;Temp;Humidity;BMP_temperature;BMP_pressure;BME280_temperature;BME280_humidity;BME280_pressure;Samples;Min_cycle;Max_cycle;Signal;HPM_P1;HPM_P2
2021/11/19 00:05:12;;;;;;;14.30;6.22;;;;;;;7.80;100.00;99665.03;4402752;79;28522;-80
2021/11/19 00:11:17;;;;;;;10.15;6.00;;;;;;;7.84;100.00;99659.27;4403584;79;28720;-81
2021/11/19 00:17:18;;;;;;;11.80;5.50;;;;;;;7.78;100.00;99663.07;4395330;79;28511;-80
2021/11/19 00:23:20;;;;;;;10.05;5.03;;;;;;;7.72;100.00;99671.88;4402256;79;28496;-82
2021/11/19 00:29:22;;;;;;;10.65;5.58;;;;;;;7.77;100.00;99641.34;4413604;79;28520;-81
2021/11/19 00:35:26;;;;;;;9.68;5.45;;;;;;;7.73;100.00;99658.80;4405626;79;28521;-83
2021/11/19 00:41:28;;;;;;;10.55;5.45;;;;;;;7.77;100.00;99660.08;4453328;78;28538;-83
2021/11/19 00:47:30;;;;;;;12.30;5.67;;;;;;;7.74;100.00;99652.95;4458227;78;28458;-86
2021/11/19 00:53:32;;;;;;;11.50;5.45;;;;;;;7.71;100.00;99642.65;4516506;78;28483;-83
2021/11/19 00:59:37;;;;;;;9.95;5.35;;;;;;;7.71;100.00;99627.40;4511905;78;28526;-83
2021/11/19 01:05:38;;;;;;;12.75;5.45;;;;;;;7.64;100.00;99631.38;4508990;77;28485;-85
2021/11/19 01:11:41;;;;;;;10.85;5.20;;;;;;;7.65;100.00;99622.83;4484541;78;28440;-83
2021/11/19 01:17:57;;;;;;;10.10;4.80;;;;;;;7.65;100.00;99613.45;4404031;79;28504;-83
2021/11/19 01:24:00;;;;;;;10.78;4.95;;;;;;;7.66;100.00;99623.16;4416513;79;28506;-84
2021/11/19 01:30:10;;;;;;;8.90;4.50;;;;;;;7.65;100.00;99614.30;4414866;79;28445;-83
2021/11/19 01:36:13;;;;;;;9.23;4.45;;;;;;;7.57;100.00;99606.95;4392452;79;28472;-83
2021/11/19 01:42:28;;;;;;;10.25;4.12;;;;;;;7.52;100.00;99607.54;4386698;79;28499;-81
2021/11/19 01:48:39;;;;;;;9.30;4.37;;;;;;;7.57;100.00;99612.30;4332287;80;28462;-82
2021/11/19 01:54:50;;;;;;;14.10;5.28;;;;;;;7.59;100.00;99608.91;4362125;80;28611;-83
2021/11/19 02:00:57;;;;;;;10.88;5.15;;;;;;;7.56;100.00;99608.79;4334148;80;28512;-81
2021/11/19 02:07:15;;;;;;;9.98;4.47;;;;;;;7.41;100.00;99617.45;4454284;78;28459;-81
2021/11/19 02:13:33;;;;;;;10.58;5.47;;;;;;;7.47;100.00;99604.12;4410352;78;28469;-82
2021/11/19 02:19:40;;;;;;;12.37;5.25;;;;;;;7.46;100.00;99589.09;4452063;79;28461;-82
2021/11/19 02:25:50;;;;;;;11.10;5.33;;;;;;;7.38;100.00;99567.84;4460354;78;28511;-82
2021/11/19 02:31:59;;;;;;;9.20;5.20;;;;;;;7.36;100.00;99572.03;4456385;78;28462;-83
2021/11/19 02:38:08;;;;;;;10.68;5.83;;;;;;;7.37;100.00;99560.31;4483466;78;28472;-83
2021/11/19 02:44:10;;;;;;;;;;;;;;;7.34;100.00;99549.17;4406430;79;28448;-83
2021/11/19 02:50:14;;;;;;;11.40;5.25;;;;;;;7.32;100.00;99549.89;4422933;79;20280;-83
2021/11/19 02:56:20;;;;;;;9.07;5.47;;;;;;;7.38;100.00;99555.27;4403573;79;28540;-81
2021/11/19 03:02:29;;;;;;;10.08;5.17;;;;;;;7.30;100.00;99543.92;4393015;78;28454;-82
2021/11/19 03:08:34;;;;;;;9.35;5.53;;;;;;;7.29;100.00;99549.80;4379108;79;28503;-81
2021/11/19 03:14:36;;;;;;;12.55;6.53;;;;;;;7.24;100.00;99545.03;4389973;79;28550;-82
2021/11/19 03:20:38;;;;;;;12.30;6.42;;;;;;;7.23;100.00;99526.50;4415906;79;28423;-82
2021/11/19 03:26:41;;;;;;;11.28;6.40;;;;;;;7.21;100.00;99515.98;4431570;79;28502;-81
2021/11/19 03:32:43;;;;;;;11.20;5.80;;;;;;;7.17;100.00;99511.23;4386552;79;28448;-82
2021/11/19 03:38:48;;;;;;;13.45;6.50;;;;;;;7.18;100.00;99500.84;4402181;79;28424;-88
2021/11/19 03:44:59;;;;;;;11.90;5.93;;;;;;;7.15;100.00;99499.41;4394730;79;28531;-84
2021/11/19 03:51:19;;;;;;;10.55;5.22;;;;;;;7.17;100.00;99501.38;4401078;79;28536;-86
2021/11/19 03:57:23;;;;;;;8.85;5.47;;;;;;;7.21;100.00;99510.64;4403134;79;28580;-86
2021/11/19 04:03:25;;;;;;;11.33;5.55;;;;;;;7.24;100.00;99496.05;4410289;79;28461;-85
2021/11/19 04:09:28;;;;;;;10.13;5.25;;;;;;;7.15;100.00;99518.13;4417194;79;28468;-89
2021/11/19 04:15:36;;;;;;;10.28;4.97;;;;;;;7.19;100.00;99498.51;4418640;79;28508;-87
2021/11/19 04:21:40;;;;;;;11.33;5.50;;;;;;;7.17;100.00;99496.02;4398965;79;28487;-83
2021/11/19 04:27:42;;;;;;;8.60;4.60;;;;;;;7.16;100.00;99517.60;4392788;79;28418;-86
2021/11/19 04:33:49;;;;;;;9.28;4.60;;;;;;;7.26;100.00;99503.36;4403874;79;28436;-82
2021/11/19 04:39:51;;;;;;;9.53;5.37;;;;;;;7.18;100.00;99495.00;4378385;79;28470;-82
2021/11/19 04:45:54;;;;;;;8.43;4.75;;;;;;;7.14;100.00;99488.91;4444662;78;28601;-84
2021/11/19 04:51:57;;;;;;;10.35;4.97;;;;;;;7.05;100.00;99487.72;4466116;78;28521;-82
2021/11/19 04:57:58;;;;;;;9.55;5.30;;;;;;;7.01;100.00;99486.47;4445358;80;28461;-81
2021/11/19 05:04:00;;;;;;;10.82;5.40;;;;;;;6.96;100.00;99482.21;4466031;78;28471;-81
2021/11/19 05:10:05;;;;;;;10.63;5.60;;;;;;;6.95;100.00;99497.44;4445189;78;28479;-83
2021/11/19 05:16:10;;;;;;;8.48;4.80;;;;;;;6.89;100.00;99495.54;4465745;78;28452;-84
2021/11/19 05:22:12;;;;;;;11.03;5.57;;;;;;;6.84;100.00;99502.00;4448834;80;28529;-84
2021/11/19 05:28:16;;;;;;;9.00;4.90;;;;;;;6.89;100.00;99492.86;4465903;79;28528;-83
2021/11/19 05:34:19;;;;;;;9.55;5.05;;;;;;;6.89;100.00;99494.20;4463487;80;28518;-83
2021/11/19 05:40:23;;;;;;;9.05;5.10;;;;;;;6.86;100.00;99493.77;4433730;78;28625;-82
2021/11/19 05:46:29;;;;;;;10.25;5.42;;;;;;;6.88;100.00;99495.23;4474530;79;28565;-82
2021/11/19 05:52:31;;;;;;;8.35;5.05;;;;;;;6.88;100.00;99497.90;4491450;78;28475;-85
2021/11/19 05:58:33;;;;;;;11.33;5.20;;;;;;;6.91;100.00;99514.88;4480081;78;28484;-84
2021/11/19 06:04:37;;;;;;;9.60;5.40;;;;;;;6.91;100.00;99504.71;4499531;78;28472;-84
2021/11/19 06:11:03;;;;;;;9.58;5.12;;;;;;;6.90;100.00;99501.20;4498221;78;28443;-85
2021/11/19 06:17:10;;;;;;;7.70;5.03;;;;;;;6.93;100.00;99511.52;4398567;80;28522;-84
2021/11/19 06:23:14;;;;;;;;;;;;;;;6.92;100.00;99515.19;4346892;80;28522;-84
2021/11/19 06:29:16;;;;;;;10.38;5.90;;;;;;;6.90;100.00;99532.47;4357099;80;20320;-84
2021/11/19 06:35:20;;;;;;;10.95;5.78;;;;;;;6.99;100.00;99539.31;4356461;79;28447;-84
2021/11/19 06:41:22;;;;;;;10.25;5.50;;;;;;;6.97;100.00;99541.34;4477640;78;28468;-82
2021/11/19 06:47:43;;;;;;;11.12;5.62;;;;;;;7.00;100.00;99536.12;4343353;80;28479;-82
2021/11/19 06:53:50;;;;;;;8.63;5.10;;;;;;;6.98;100.00;99549.17;4366895;80;28530;-81
2021/11/19 06:59:56;;;;;;;10.20;5.45;;;;;;;7.08;100.00;99546.67;4406993;80;28480;-85
2021/11/19 07:05:59;;;;;;;8.85;5.70;;;;;;;7.08;100.00;99538.15;4401729;80;28490;-87
2021/11/19 07:12:00;;;;;;;9.38;5.58;;;;;;;7.06;100.00;99542.84;4372554;80;28454;-80
2021/11/19 07:18:07;;;;;;;8.80;5.45;;;;;;;7.12;100.00;99553.27;4360906;81;28455;-81
2021/11/19 07:24:09;;;;;;;11.00;6.08;;;;;;;7.19;100.00;99543.45;4322769;82;28513;-83
2021/11/19 07:30:17;;;;;;;10.40;5.70;;;;;;;7.17;100.00;99552.18;4382011;79;28546;-86
2021/11/19 07:36:37;;;;;;;11.12;5.33;;;;;;;7.17;100.00;99556.19;4389781;80;28530;-80
2021/11/19 07:42:58;;;;;;;7.22;4.45;;;;;;;7.28;100.00;99554.80;4411215;79;28459;-79
2021/11/19 07:49:03;;;;;;;8.45;4.83;;;;;;;7.36;100.00;99543.14;4392575;79;28478;-80
2021/11/19 07:55:08;;;;;;;8.33;5.00;;;;;;;7.40;100.00;99544.38;4369894;79;28470;-80
2021/11/19 08:01:09;;;;;;;9.25;5.28;;;;;;;7.46;100.00;99532.91;4395378;79;28537;-81
2021/11/19 08:07:11;;;;;;;8.38;5.00;;;;;;;7.46;100.00;99524.88;4396476;79;28504;-82
2021/11/19 08:13:15;;;;;;;7.72;4.17;;;;;;;7.51;100.00;99526.95;4368503;79;28510;-82
2021/11/19 08:19:24;;;;;;;8.23;4.35;;;;;;;7.51;100.00;99557.73;4381273;79;28535;-81
2021/11/19 08:25:27;;;;;;;6.35;3.90;;;;;;;7.59;100.00;99548.70;4401169;79;28549;-74
2021/11/19 08:31:28;;;;;;;7.20;4.12;;;;;;;7.77;100.00;99561.53;4383253;79;28496;-82
2021/11/19 08:37:31;;;;;;;5.70;3.90;;;;;;;7.75;100.00;99573.77;4392059;79;28445;-81
2021/11/19 08:43:39;;;;;;;5.45;3.83;;;;;;;7.79;100.00;99571.02;4386963;77;28518;-79
2021/11/19 08:49:41;;;;;;;6.85;3.58;;;;;;;7.88;100.00;99578.89;4383344;79;28518;-81
2021/11/19 08:55:50;;;;;;;7.60;3.87;;;;;;;7.88;100.00;99565.50;4371541;80;28494;-90
2021/11/19 09:01:54;;;;;;;7.87;4.10;;;;;;;7.91;100.00;99577.14;4390761;81;28449;-81
2021/11/19 09:07:56;;;;;;;6.10;3.77;;;;;;;7.90;100.00;99584.33;4401369;81;28467;-81
2021/11/19 09:13:58;;;;;;;6.42;3.55;;;;;;;8.00;100.00;99574.61;4413382;79;28477;-82
2021/11/19 09:20:24;;;;;;;5.87;3.50;;;;;;;8.11;100.00;99574.52;4458052;79;28573;-80
2021/11/19 09:26:47;;;;;;;6.42;3.70;;;;;;;8.26;100.00;99568.99;4388460;81;28495;-80
2021/11/19 09:32:52;;;;;;;7.10;3.75;;;;;;;8.29;100.00;99562.41;4362869;81;28552;-81
2021/11/19 09:38:53;;;;;;;7.45;4.33;;;;;;;8.32;100.00;99568.20;4386369;80;28470;-78
2021/11/19 09:45:35;;;;;;;5.22;3.58;;;;;;;8.34;100.00;99555.95;4399413;79;28526;-76
2021/11/19 09:52:13;;;;;;;6.60;3.90;;;;;;;8.34;100.00;99577.38;4392749;81;28477;-76
2021/11/19 09:58:46;;;;;;;7.00;3.65;;;;;;;8.30;100.00;99576.95;4395346;79;28476;-76
2021/11/19 10:05:11;;;;;;;6.00;3.45;;;;;;;8.44;100.00;99582.33;4383072;79;28500;-77
2021/11/19 10:11:42;;;;;;;5.30;3.00;;;;;;;8.43;100.00;99575.33;4361787;80;28486;-75
2021/11/19 10:17:57;;;;;;;28.65;5.70;;;;;;;8.50;100.00;99566.29;4384946;79;28551;-84
2021/11/19 10:24:13;;;;;;;6.07;3.67;;;;;;;8.51;100.00;99553.73;4375675;79;28478;-85
2021/11/19 10:30:41;;;;;;;6.15;3.20;;;;;;;8.53;100.00;99544.96;4375137;80;28462;-86
2021/11/19 10:37:26;;;;;;;6.47;3.83;;;;;;;8.50;100.00;99537.31;4387834;79;28454;-84
2021/11/19 10:43:51;;;;;;;4.15;3.12;;;;;;;8.63;100.00;99517.23;4390949;81;28512;-84
2021/11/19 10:50:30;;;;;;;6.33;3.90;;;;;;;8.63;100.00;99514.55;4380713;79;28488;-83
2021/11/19 10:56:50;;;;;;;6.75;3.92;;;;;;;8.73;100.00;99513.31;4369782;79;28503;-88
2021/11/19 11:02:56;;;;;;;6.83;3.22;;;;;;;8.76;100.00;99499.48;4387794;81;28480;-87
2021/11/19 11:09:18;;;;;;;5.28;3.58;;;;;;;8.78;100.00;99514.34;4390857;81;28452;-85
2021/11/19 11:15:29;;;;;;;6.47;3.95;;;;;;;8.84;100.00;99505.14;4404804;79;28547;-80
2021/11/19 11:21:42;;;;;;;6.25;3.35;;;;;;;8.86;100.00;99497.20;4399113;79;28453;-81
2021/11/19 11:28:06;;;;;;;6.28;3.67;;;;;;;8.85;100.00;99494.22;4389741;80;28494;-78
2021/11/19 11:34:44;;;;;;;6.30;3.42;;;;;;;8.96;100.00;99485.23;4399039;79;28490;-79
2021/11/19 11:41:25;;;;;;;6.85;4.05;;;;;;;9.04;100.00;99485.82;4386390;79;28459;-80
2021/11/19 11:47:53;;;;;;;4.97;3.30;;;;;;;9.04;100.00;99487.70;4394296;79;28468;-83
2021/11/19 11:54:35;;;;;;;4.90;3.58;;;;;;;9.04;100.00;99500.58;4393931;79;28520;-80
2021/11/19 12:01:03;;;;;;;6.40;3.92;;;;;;;9.00;100.00;99495.33;4379026;81;28490;-84
2021/11/19 12:07:37;;;;;;;7.08;4.70;;;;;;;9.07;100.00;99503.36;4390488;81;28519;-82
2021/11/19 12:13:50;;;;;;;7.92;4.87;;;;;;;9.02;100.00;99494.59;4404727;79;28469;-80
2021/11/19 12:20:06;;;;;;;6.87;4.28;;;;;;;9.14;100.00;99489.42;4400492;79;28479;-84
2021/11/19 12:26:31;;;;;;;7.30;4.85;;;;;;;9.14;100.00;99493.45;4401671;79;28957;-85
2021/11/19 12:32:46;;;;;;;7.08;4.87;;;;;;;9.19;100.00;99492.81;4398836;79;28452;-83
2021/11/19 12:38:59;;;;;;;7.72;4.33;;;;;;;9.22;100.00;99493.73;4393521;79;28464;-84
2021/11/19 12:45:21;;;;;;;7.60;5.00;;;;;;;9.21;100.00;99484.03;4434330;77;28595;-76
2021/11/19 12:51:51;;;;;;;7.25;5.00;;;;;;;9.16;100.00;99487.35;4489580;78;28549;-78
2021/11/19 12:58:24;;;;;;;10.72;6.08;;;;;;;9.11;100.00;99491.20;4505887;77;28491;-76
2021/11/19 13:04:37;;;;;;;12.13;6.67;;;;;;;9.06;100.00;99470.87;4465705;78;28519;-75
2021/11/19 13:10:44;;;;;;;10.08;6.28;;;;;;;9.11;100.00;99466.22;4389466;79;28460;-75
2021/11/19 13:17:11;;;;;;;10.48;6.95;;;;;;;9.11;100.00;99463.53;4382982;79;28480;-77
2021/11/19 13:23:35;;;;;;;;;;;;;;;9.04;100.00;99458.19;4390353;80;28500;-78
2021/11/19 13:29:59;;;;;;;11.57;7.17;;;;;;;9.01;100.00;99468.01;4399814;79;20154;-77
2021/11/19 13:36:14;;;;;;;11.12;6.75;;;;;;;9.09;100.00;99474.46;4385174;79;28528;-75
2021/11/19 13:42:21;;;;;;;10.73;7.07;;;;;;;9.15;100.00;99471.45;4331090;80;28492;-75
2021/11/19 13:49:00;;;;;;;11.95;8.05;;;;;;;9.07;100.00;99469.83;4285706;82;41357;-77
2021/11/19 13:55:25;;;;;;;11.90;7.55;;;;;;;9.17;100.00;99480.14;4319205;81;28462;-76
2021/11/19 14:01:44;;;;;;;11.20;6.65;;;;;;;9.19;100.00;99496.31;4255859;82;28525;-75
2021/11/19 14:08:05;;;;;;;13.40;7.90;;;;;;;9.19;100.00;99486.92;4211293;83;28496;-76
2021/11/19 14:14:19;;;;;;;14.25;7.62;;;;;;;9.19;100.00;99495.50;4213344;83;28548;-78
2021/11/19 14:26:54;;;;;;;10.30;7.10;;;;;;;9.20;100.00;99493.13;4324489;82;28438;-76
2021/11/19 14:33:09;;;;;;;13.48;7.22;;;;;;;9.24;100.00;99488.16;4253043;82;28563;-77
2021/11/19 14:39:50;;;;;;;12.50;7.27;;;;;;;9.20;100.00;99515.39;4266847;82;28513;-75
2021/11/19 14:45:44;;;;;;;12.20;7.42;;;;;;;9.25;100.00;99501.88;4387998;79;28531;-78
2021/11/19 14:51:51;;;;;;;12.75;7.45;;;;;;;9.31;100.00;99505.05;4382786;80;28523;-76
2021/11/19 14:58:20;;;;;;;10.68;7.40;;;;;;;9.24;100.00;99497.55;4384849;81;28467;-77
2021/11/19 15:04:37;;;;;;;10.28;7.15;;;;;;;9.26;100.00;99503.52;4392979;79;28608;-79
2021/11/19 15:10:44;;;;;;;10.13;6.65;;;;;;;9.26;100.00;99498.97;4424646;79;28479;-77
2021/11/19 15:16:51;;;;;;;10.85;7.37;;;;;;;9.32;100.00;99501.33;4372029;80;28470;-79
2021/11/19 15:23:02;;;;;;;14.05;7.72;;;;;;;9.26;100.00;99505.67;4413490;79;28496;-79
2021/11/19 15:29:32;;;;;;;14.18;8.65;;;;;;;9.26;100.00;99506.21;4390776;80;28484;-78
2021/11/19 15:36:02;;;;;;;12.05;8.45;;;;;;;9.26;100.00;99489.58;4384937;79;28533;-78
2021/11/19 15:42:04;;;;;;;12.65;7.80;;;;;;;9.20;100.00;99490.44;4406833;79;28515;-79
2021/11/19 15:48:05;;;;;;;13.05;7.72;;;;;;;9.15;100.00;99490.23;4405619;77;28459;-79
2021/11/19 15:54:15;;;;;;;11.60;8.48;;;;;;;9.08;100.00;99495.62;4405267;79;28478;-80
2021/11/19 16:00:25;;;;;;;11.57;8.03;;;;;;;9.08;100.00;99494.81;4409899;79;28484;-79
2021/11/19 16:06:55;;;;;;;11.55;7.95;;;;;;;9.15;100.00;99504.98;4410406;79;28480;-79
2021/11/19 16:13:29;;;;;;;11.75;7.67;;;;;;;9.16;100.00;99498.58;4404375;79;28527;-80
2021/11/19 16:19:31;;;;;;;11.30;8.03;;;;;;;9.17;100.00;99505.09;4401748;79;28512;-75
2021/11/19 16:25:33;;;;;;;12.95;8.80;;;;;;;9.22;100.00;99499.63;4380764;79;28487;-79
2021/11/19 16:31:35;;;;;;;13.65;9.05;;;;;;;9.16;100.00;99509.31;4392547;79;28482;-78
2021/11/19 16:37:38;;;;;;;12.95;8.50;;;;;;;9.14;100.00;99492.11;4391366;79;28459;-78
2021/11/19 16:43:43;;;;;;;11.33;8.73;;;;;;;9.17;100.00;99493.02;4370162;80;28455;-77
2021/11/19 16:49:45;;;;;;;14.03;9.20;;;;;;;9.14;100.00;99489.42;4306624;80;28570;-76
2021/11/19 16:55:49;;;;;;;11.95;8.50;;;;;;;9.15;100.00;99484.36;4318014;80;28532;-75
2021/11/19 17:01:52;;;;;;;11.38;8.38;;;;;;;9.13;100.00;99501.19;4314179;80;28608;-78
2021/11/19 17:07:53;;;;;;;13.88;9.55;;;;;;;9.17;100.00;99498.38;4362417;80;28468;-78
2021/11/19 17:13:56;;;;;;;15.05;8.88;;;;;;;9.12;100.00;99490.16;4329021;79;28590;-81
2021/11/19 17:20:00;;;;;;;14.07;8.60;;;;;;;9.16;100.00;99479.80;4326402;80;28468;-81
2021/11/19 17:26:02;;;;;;;12.78;8.43;;;;;;;9.16;100.00;99491.88;4344916;80;28534;-81
2021/11/19 17:32:07;;;;;;;14.40;9.03;;;;;;;9.15;100.00;99498.28;4323844;80;28491;-84
2021/11/19 17:38:09;;;;;;;12.78;8.53;;;;;;;9.16;100.00;99514.17;4295904;80;28480;-78
2021/11/19 17:44:11;;;;;;;15.25;9.53;;;;;;;9.18;100.00;99508.61;4319960;79;28494;-81
2021/11/19 17:50:14;;;;;;;14.50;9.93;;;;;;;9.12;100.00;99510.28;4402432;79;28579;-81
2021/11/19 17:56:33;;;;;;;13.55;8.68;;;;;;;9.06;100.00;99502.55;4407498;79;28490;-83
2021/11/19 18:02:34;;;;;;;12.37;8.55;;;;;;;9.05;100.00;99499.53;4383908;79;28482;-78
2021/11/19 18:08:39;;;;;;;11.97;8.35;;;;;;;9.07;100.00;99510.06;4384363;79;28461;-81
2021/11/19 18:14:44;;;;;;;11.07;7.77;;;;;;;9.09;100.00;99497.27;4397302;80;28482;-81
2021/11/19 18:20:54;;;;;;;12.43;8.30;;;;;;;8.99;100.00;99507.09;4419164;79;28472;-79
2021/11/19 18:26:57;;;;;;;14.35;9.80;;;;;;;9.05;100.00;99526.36;4416145;79;28484;-81
2021/11/19 18:32:59;;;;;;;13.20;9.18;;;;;;;9.12;100.00;99522.34;4409070;79;28484;-81
2021/11/19 18:39:03;;;;;;;14.60;9.65;;;;;;;8.91;100.00;99526.08;4399716;79;28514;-80
2021/11/19 18:45:06;;;;;;;13.55;9.00;;;;;;;8.98;100.00;99517.52;4375991;79;28549;-81
2021/11/19 18:51:13;;;;;;;11.85;8.28;;;;;;;8.99;100.00;99511.13;4410077;79;28464;-79
2021/11/19 18:57:23;;;;;;;11.00;7.62;;;;;;;8.98;100.00;99517.52;4394410;79;28512;-77
2021/11/19 19:03:27;;;;;;;11.40;8.30;;;;;;;8.96;100.00;99506.69;4392108;79;28553;-77
2021/11/19 19:09:28;;;;;;;11.55;7.92;;;;;;;9.04;100.00;99519.88;4393648;79;28519;-84
2021/11/19 19:15:34;;;;;;;11.65;8.18;;;;;;;9.00;100.00;99528.02;4386257;79;28516;-79
2021/11/19 19:21:36;;;;;;;11.60;7.95;;;;;;;9.02;100.00;99528.13;4409999;79;28464;-82
2021/11/19 19:27:41;;;;;;;12.10;7.83;;;;;;;9.02;100.00;99526.78;4414312;79;28521;-81
2021/11/19 19:33:46;;;;;;;12.73;8.28;;;;;;;9.00;100.00;99526.17;4382949;81;28482;-84
2021/11/19 19:39:48;;;;;;;15.53;8.73;;;;;;;8.94;100.00;99524.31;4377990;79;28557;-82
2021/11/19 19:45:53;;;;;;;12.82;8.55;;;;;;;9.00;100.00;99529.36;4390220;79;28485;-83
2021/11/19 19:51:59;;;;;;;10.55;7.10;;;;;;;9.13;100.00;99528.02;4400060;79;28627;-81
2021/11/19 19:58:00;;;;;;;12.35;8.18;;;;;;;9.07;100.00;99520.80;4410229;79;28499;-79
2021/11/19 20:04:04;;;;;;;11.35;7.83;;;;;;;9.11;100.00;99532.77;4397931;79;28471;-80
2021/11/19 20:10:09;;;;;;;11.20;7.65;;;;;;;9.12;100.00;99545.15;4398508;79;28470;-84
2021/11/19 20:16:11;;;;;;;10.85;7.40;;;;;;;9.17;100.00;99535.94;4413374;79;28543;-77
2021/11/19 20:22:16;;;;;;;10.95;7.72;;;;;;;9.13;100.00;99517.29;4421876;79;28447;-82
2021/11/19 20:28:25;;;;;;;11.78;8.53;;;;;;;9.17;100.00;99516.36;4447666;78;28464;-80
2021/11/19 20:34:31;;;;;;;12.10;7.78;;;;;;;9.19;100.00;99512.94;4421570;79;28454;-85
2021/11/19 20:40:36;;;;;;;12.20;8.38;;;;;;;9.21;100.00;99510.86;4309199;81;28528;-81
2021/11/19 20:46:38;;;;;;;11.10;7.55;;;;;;;9.13;100.00;99511.92;4264432;82;28469;-81
2021/11/19 20:52:49;;;;;;;11.78;7.87;;;;;;;9.11;100.00;99509.97;4259429;83;28500;-85
2021/11/19 20:58:52;;;;;;;12.93;7.92;;;;;;;9.15;100.00;99495.59;4257367;82;28509;-86
2021/11/19 21:04:58;;;;;;;15.55;9.05;;;;;;;9.12;100.00;99507.59;4269400;82;28460;-84
2021/11/19 21:11:02;;;;;;;13.70;9.80;;;;;;;9.15;100.00;99516.55;4263971;82;28467;-89
2021/11/19 21:17:05;;;;;;;15.98;10.80;;;;;;;9.12;100.00;99510.28;4262105;82;28445;-88
2021/11/19 21:23:09;;;;;;;15.88;10.10;;;;;;;9.06;100.00;99505.23;4261104;82;28450;-82
2021/11/19 21:29:14;;;;;;;16.35;10.55;;;;;;;9.04;100.00;99514.52;4267817;82;28535;-86
2021/11/19 21:35:21;;;;;;;16.40;10.40;;;;;;;9.06;100.00;99518.65;4258898;82;28504;-83
2021/11/19 21:41:28;;;;;;;14.43;10.25;;;;;;;9.09;100.00;99521.94;4276767;82;28494;-83
2021/11/19 21:47:34;;;;;;;15.78;10.53;;;;;;;9.09;100.00;99516.58;4256836;82;28547;-83
2021/11/19 21:53:43;;;;;;;17.20;10.15;;;;;;;9.09;100.00;99521.94;4261294;81;28503;-84
2021/11/19 21:59:48;;;;;;;17.95;10.80;;;;;;;9.05;100.00;99518.84;4243157;82;28461;-83
2021/11/19 22:05:54;;;;;;;20.02;11.60;;;;;;;9.04;100.00;99530.08;4262893;82;28512;-86
2021/11/19 22:11:57;;;;;;;18.60;11.93;;;;;;;9.14;100.00;99528.83;4264765;82;28460;-82
2021/11/19 22:18:05;;;;;;;19.80;12.25;;;;;;;9.13;100.00;99523.99;4277884;82;28498;-87
2021/11/19 22:24:07;;;;;;;16.70;10.55;;;;;;;9.10;100.00;99527.08;4266115;82;28501;-86
2021/11/19 22:30:17;;;;;;;17.15;11.18;;;;;;;9.12;100.00;99523.69;4251760;82;28479;-83
2021/11/19 22:36:21;;;;;;;16.80;11.10;;;;;;;9.16;100.00;99528.93;4270107;82;28508;-90
2021/11/19 22:42:25;;;;;;;18.35;11.10;;;;;;;9.22;100.00;99535.84;4269917;82;28501;-86
2021/11/19 22:48:29;;;;;;;23.05;12.98;;;;;;;9.27;100.00;99523.45;4300057;80;28461;-84
2021/11/19 22:54:31;;;;;;;17.25;10.80;;;;;;;9.27;100.00;99521.27;4304931;80;28456;-87
2021/11/19 23:00:47;;;;;;;16.48;10.58;;;;;;;9.24;100.00;99533.23;4344324;80;28469;-86
2021/11/19 23:06:50;;;;;;;;;;;;;;;9.34;100.00;99540.87;4307062;81;28485;-86
2021/11/19 23:12:52;;;;;;;12.23;8.33;;;;;;;9.40;100.00;99525.78;4307795;80;20227;-88
2021/11/19 23:18:54;;;;;;;15.88;9.50;;;;;;;9.41;100.00;99514.01;4294879;80;28579;-87
2021/11/19 23:25:01;;;;;;;12.03;7.95;;;;;;;9.44;100.00;99510.89;4299245;80;28482;-85
2021/11/19 23:31:08;;;;;;;12.05;7.40;;;;;;;9.45;100.00;99497.27;4311022;80;28427;-87
2021/11/19 23:37:14;;;;;;;15.38;8.80;;;;;;;9.56;100.00;99501.67;4354673;80;28505;-86
2021/11/19 23:43:26;;;;;;;11.30;7.55;;;;;;;9.63;100.00;99482.31;4334829;80;28485;-87
2021/11/19 23:49:29;;;;;;;9.80;6.65;;;;;;;9.61;100.00;99484.39;4293650;81;28544;-88
2021/11/19 23:55:32;;;;;;;12.28;7.72;;;;;;;9.66;100.00;99495.83;4266703;81;28487;-89
